地図

経路データ

SID SEASON NUMBER BASIN SUBBASIN NAME ISO_TIME NATURE LAT LON WMO_WIND WMO_PRES WMO_AGENCY TRACK_TYPE DIST2LAND LANDFALL IFLAG USA_AGENCY USA_ATCF_ID USA_LAT USA_LON USA_RECORD USA_STATUS USA_WIND USA_PRES USA_SSHS USA_R34_NE USA_R34_SE USA_R34_SW USA_R34_NW USA_R50_NE USA_R50_SE USA_R50_SW USA_R50_NW USA_R64_NE USA_R64_SE USA_R64_SW USA_R64_NW USA_POCI USA_ROCI USA_RMW USA_EYE TOKYO_LAT TOKYO_LON TOKYO_GRADE TOKYO_WIND TOKYO_PRES TOKYO_R50_DIR TOKYO_R50_LONG TOKYO_R50_SHORT TOKYO_R30_DIR TOKYO_R30_LONG TOKYO_R30_SHORT TOKYO_LAND CMA_LAT CMA_LON CMA_CAT CMA_WIND CMA_PRES HKO_LAT HKO_LON HKO_CAT HKO_WIND HKO_PRES NEWDELHI_LAT NEWDELHI_LON NEWDELHI_GRADE NEWDELHI_WIND NEWDELHI_PRES NEWDELHI_CI NEWDELHI_DP NEWDELHI_POCI REUNION_LAT REUNION_LON REUNION_TYPE REUNION_WIND REUNION_PRES REUNION_TNUM REUNION_CI REUNION_RMW REUNION_R34_NE REUNION_R34_SE REUNION_R34_SW REUNION_R34_NW REUNION_R50_NE REUNION_R50_SE REUNION_R50_SW REUNION_R50_NW REUNION_R64_NE REUNION_R64_SE REUNION_R64_SW REUNION_R64_NW BOM_LAT BOM_LON BOM_TYPE BOM_WIND BOM_PRES BOM_TNUM BOM_CI BOM_RMW BOM_R34_NE BOM_R34_SE BOM_R34_SW BOM_R34_NW BOM_R50_NE BOM_R50_SE BOM_R50_SW BOM_R50_NW BOM_R64_NE BOM_R64_SE BOM_R64_SW BOM_R64_NW BOM_ROCI BOM_POCI BOM_EYE BOM_POS_METHOD BOM_PRES_METHOD NADI_LAT NADI_LON NADI_CAT NADI_WIND NADI_PRES WELLINGTON_LAT WELLINGTON_LON WELLINGTON_WIND WELLINGTON_PRES DS824_LAT DS824_LON DS824_STAGE DS824_WIND DS824_PRES TD9636_LAT TD9636_LON TD9636_STAGE TD9636_WIND TD9636_PRES TD9635_LAT TD9635_LON TD9635_WIND TD9635_PRES TD9635_ROCI NEUMANN_LAT NEUMANN_LON NEUMANN_CLASS NEUMANN_WIND NEUMANN_PRES MLC_LAT MLC_LON MLC_CLASS MLC_WIND MLC_PRES USA_GUST BOM_GUST BOM_GUST_PER REUNION_GUST REUNION_GUST_PER USA_SEAHGT USA_SEARAD_NE USA_SEARAD_SE USA_SEARAD_SW USA_SEARAD_NW STORM_SPEED STORM_DIR
1861042S16062 1861 7 SI MM NOT_NAMED 1861-02-11 06:00:00 NR -15.8000 62.1000 reunion main 669 653 _____O________ -1 -15.8000 62.1000 99 9.90000 2 239
1861042S16062 1861 7 SI MM NOT_NAMED 1861-02-11 09:00:00 NR -15.8533 62.0064 main 653 646 _____P________ -1 -15.8533 62.0064 99 2 240
1861042S16062 1861 7 SI MM NOT_NAMED 1861-02-11 12:00:00 NR -15.9087 61.9086 main 646 631 _____P________ -1 -15.9087 61.9086 99 2 240
1861042S16062 1861 7 SI MM NOT_NAMED 1861-02-11 15:00:00 NR -15.9683 61.8024 main 631 623 _____P________ -1 -15.9683 61.8024 99 3 240
1861042S16062 1861 7 SI MM NOT_NAMED 1861-02-11 18:00:00 NR -16.0340 61.6837 main 623 608 _____P________ -1 -16.0340 61.6837 99 3 240
1861042S16062 1861 7 SI MM NOT_NAMED 1861-02-11 21:00:00 NR -16.1080 61.5484 main 601 585 _____P________ -1 -16.1080 61.5484 99 3 240
1861042S16062 1861 7 SI MM NOT_NAMED 1861-02-12 00:00:00 NR -16.1923 61.3921 main 585 563 _____P________ -1 -16.1923 61.3921 99 4 241
1861042S16062 1861 7 SI MM NOT_NAMED 1861-02-12 03:00:00 NR -16.2890 61.2107 main 563 541 _____P________ -1 -16.2890 61.2107 99 4 241
1861042S16062 1861 7 SI MM NOT_NAMED 1861-02-12 06:00:00 NR -16.4000 61.0000 reunion main 541 518 _____O________ -1 -16.4000 61.0000 99 9.90000 5 241
1861042S16062 1861 7 SI MM NOT_NAMED 1861-02-12 09:00:00 NR -16.5263 60.7579 main 518 481 _____P________ -1 -16.5263 60.7579 99 6 242
1861042S16062 1861 7 SI MM NOT_NAMED 1861-02-12 12:00:00 NR -16.6646 60.4913 main 481 453 _____P________ -1 -16.6646 60.4913 99 6 242
1861042S16062 1861 7 SI MM NOT_NAMED 1861-02-12 15:00:00 NR -16.8103 60.2095 main 453 417 _____P________ -1 -16.8103 60.2095 99 6 242
1861042S16062 1861 7 SI MM NOT_NAMED 1861-02-12 18:00:00 NR -16.9592 59.9218 main 417 396 _____P________ -1 -16.9592 59.9218 99 6 242
1861042S16062 1861 7 SI MM NOT_NAMED 1861-02-12 21:00:00 NR -17.1068 59.6376 main 390 370 _____P________ -1 -17.1068 59.6376 99 6 241
1861042S16062 1861 7 SI MM NOT_NAMED 1861-02-13 00:00:00 NR -17.2490 59.3662 main 370 336 _____P________ -1 -17.2490 59.3662 99 6 241
1861042S16062 1861 7 SI MM NOT_NAMED 1861-02-13 03:00:00 NR -17.3814 59.1172 main 336 317 _____P________ -1 -17.3814 59.1172 99 5 241
1861042S16062 1861 7 SI MM NOT_NAMED 1861-02-13 06:00:00 NR -17.5000 58.9000 reunion main 317 302 _____O________ -1 -17.5000 58.9000 99 9.90000 4 240
1861042S16062 1861 7 SI MM NOT_NAMED 1861-02-13 09:00:00 NR -17.5899 58.7431 main 298 284 _____P________ -1 -17.5899 58.7431 99 3 238
1861042S16062 1861 7 SI MM NOT_NAMED 1861-02-13 12:00:00 NR -17.6673 58.6154 main 284 281 _____P________ -1 -17.6673 58.6154 99 3 237
1861042S16062 1861 7 SI MM NOT_NAMED 1861-02-13 15:00:00 NR -17.7346 58.5123 main 281 267 _____P________ -1 -17.7346 58.5123 99 2 234
1861042S16062 1861 7 SI MM NOT_NAMED 1861-02-13 18:00:00 NR -17.7940 58.4290 main 267 267 _____P________ -1 -17.7940 58.4290 99 2 231
1861042S16062 1861 7 SI MM NOT_NAMED 1861-02-13 21:00:00 NR -17.8480 58.3609 main 267 254 _____P________ -1 -17.8480 58.3609 99 2 229
1861042S16062 1861 7 SI MM NOT_NAMED 1861-02-14 00:00:00 NR -17.8988 58.3032 main 254 254 _____P________ -1 -17.8988 58.3032 99 1 225
1861042S16062 1861 7 SI MM NOT_NAMED 1861-02-14 03:00:00 NR -17.9487 58.2511 main 254 240 _____P________ -1 -17.9487 58.2511 99 1 225
1861042S16062 1861 7 SI MM NOT_NAMED 1861-02-14 06:00:00 NR -18.0000 58.2000 reunion main 240 238 _____O________ -1 -18.0000 58.2000 99 9.90000 2 228
1861042S16062 1861 7 SI MM NOT_NAMED 1861-02-14 09:00:00 NR -18.0509 58.1338 main 227 227 _____P________ -1 -18.0509 58.1338 99 2 229
1861042S16062 1861 7 SI MM NOT_NAMED 1861-02-14 12:00:00 NR -18.1005 58.0725 main 227 225 _____P________ -1 -18.1005 58.0725 99 2 227
1861042S16062 1861 7 SI MM NOT_NAMED 1861-02-14 15:00:00 NR -18.1510 58.0142 main 214 214 _____P________ -1 -18.1510 58.0142 99 2 227
1861042S16062 1861 7 SI MM NOT_NAMED 1861-02-14 18:00:00 NR -18.2048 57.9570 main 214 202 _____P________ -1 -18.2048 57.9570 99 2 224
1861042S16062 1861 7 SI MM NOT_NAMED 1861-02-14 21:00:00 NR -18.2643 57.8989 main 202 201 _____P________ -1 -18.2643 57.8989 99 2 221
1861042S16062 1861 7 SI MM NOT_NAMED 1861-02-15 00:00:00 NR -18.3317 57.8380 main 201 190 _____P________ -1 -18.3317 57.8380 99 2 218
1861042S16062 1861 7 SI MM NOT_NAMED 1861-02-15 03:00:00 NR -18.4095 57.7724 main 190 178 _____P________ -1 -18.4095 57.7724 99 2 218
1861042S16062 1861 7 SI MM NOT_NAMED 1861-02-15 06:00:00 NR -18.5000 57.7000 reunion main 178 167 _____O________ -1 -18.5000 57.7000 99 9.90000 2 220
1861042S16062 1861 7 SI MM NOT_NAMED 1861-02-15 09:00:00 NR -18.5905 57.6101 main 167 156 _____P________ -1 -18.5905 57.6101 99 3 222
1861042S16062 1861 7 SI MM NOT_NAMED 1861-02-15 12:00:00 NR -18.6914 57.5134 main 156 145 _____P________ -1 -18.6914 57.5134 99 3 222
1861042S16062 1861 7 SI MM NOT_NAMED 1861-02-15 15:00:00 NR -18.8041 57.4118 main 145 134 _____P________ -1 -18.8041 57.4118 99 3 219
1861042S16062 1861 7 SI MM NOT_NAMED 1861-02-15 18:00:00 NR -18.9302 57.3073 main 135 116 _____P________ -1 -18.9302 57.3073 99 3 217
1861042S16062 1861 7 SI MM NOT_NAMED 1861-02-15 21:00:00 NR -19.0713 57.2020 main 116 109 _____P________ -1 -19.0713 57.2020 99 4 214
1861042S16062 1861 7 SI MM NOT_NAMED 1861-02-16 00:00:00 NR -19.2289 57.0976 main 109 94 _____P________ -1 -19.2289 57.0976 99 4 210
1861042S16062 1861 7 SI MM NOT_NAMED 1861-02-16 03:00:00 NR -19.4046 56.9963 main 94 84 _____P________ -1 -19.4046 56.9963 99 4 207
1861042S16062 1861 7 SI MM NOT_NAMED 1861-02-16 06:00:00 NR -19.6000 56.9000 reunion main 84 77 _____O________ -1 -19.6000 56.9000 99 9.90000 4 205
1861042S16062 1861 7 SI MM NOT_NAMED 1861-02-16 09:00:00 NR -19.8046 56.7952 main 80 76 _____P________ -1 -19.8046 56.7952 99 5 204
1861042S16062 1861 7 SI MM NOT_NAMED 1861-02-16 12:00:00 NR -20.0289 56.6920 main 80 76 _____P________ -1 -20.0289 56.6920 99 5 202
1861042S16062 1861 7 SI MM NOT_NAMED 1861-02-16 15:00:00 NR -20.2712 56.5939 main 76 73 _____P________ -1 -20.2712 56.5939 99 5 200
1861042S16062 1861 7 SI MM NOT_NAMED 1861-02-16 18:00:00 NR -20.5302 56.5042 main 83 70 _____P________ -1 -20.5302 56.5042 99 6 196
1861042S16062 1861 7 SI MM NOT_NAMED 1861-02-16 21:00:00 NR -20.8040 56.4265 main 70 62 _____P________ -1 -20.8040 56.4265 99 6 193
1861042S16062 1861 7 SI MM NOT_NAMED 1861-02-17 00:00:00 NR -21.0913 56.3642 main 62 51 _____P________ -1 -21.0913 56.3642 99 6 190
1861042S16062 1861 7 SI MM NOT_NAMED 1861-02-17 03:00:00 NR -21.3905 56.3209 main 52 52 _____P________ -1 -21.3905 56.3209 99 6 186
1861042S16062 1861 7 SI MM NOT_NAMED 1861-02-17 06:00:00 NR -21.7000 56.3000 reunion main 68 68 _____O________ -1 -21.7000 56.3000 99 9.90000 6 183
1861042S16062 1861 7 SI MM NOT_NAMED 1861-02-17 09:00:00 NR -22.0150 56.2811 main 93 93 _____P________ -1 -22.0150 56.2811 99 6 0
1861042S16062 1861 7 SI MM NOT_NAMED 1861-02-17 12:00:00 NR -22.3434 56.2819 main 123 123 _____P________ -1 -22.3434 56.2819 99 7 179
1861042S16062 1861 7 SI MM NOT_NAMED 1861-02-17 15:00:00 NR -22.6816 56.3040 main 162 162 _____P________ -1 -22.6816 56.3040 99 7 175
1861042S16062 1861 7 SI MM NOT_NAMED 1861-02-17 18:00:00 NR -23.0264 56.3494 main 192 192 _____P________ -1 -23.0264 56.3494 99 7 172
1861042S16062 1861 7 SI MM NOT_NAMED 1861-02-17 21:00:00 NR -23.3740 56.4198 main 238 238 _____P________ -1 -23.3740 56.4198 99 7 168
1861042S16062 1861 7 SI MM NOT_NAMED 1861-02-18 00:00:00 NR -23.7212 56.5171 main 273 273 _____P________ -1 -23.7212 56.5171 99 7 164
1861042S16062 1861 7 SI MM NOT_NAMED 1861-02-18 03:00:00 NR -24.0644 56.6432 main 318 318 _____P________ -1 -24.0644 56.6432 99 7 159
1861042S16062 1861 7 SI MM NOT_NAMED 1861-02-18 06:00:00 NR -24.4000 56.8000 reunion main 357 357 _____O________ -1 -24.4000 56.8000 99 9.90000 7 155
1861042S16062 1861 7 SI MM NOT_NAMED 1861-02-18 09:00:00 NR -24.7334 56.9868 main 395 395 _____P________ -1 -24.7334 56.9868 99 8 151
1861042S16062 1861 7 SI MM NOT_NAMED 1861-02-18 12:00:00 NR -25.0629 57.2076 main 444 444 _____P________ -1 -25.0629 57.2076 99 8 147
1861042S16062 1861 7 SI MM NOT_NAMED 1861-02-18 15:00:00 NR -25.3855 57.4563 main 487 487 _____P________ -1 -25.3855 57.4563 99 8 144
1861042S16062 1861 7 SI MM NOT_NAMED 1861-02-18 18:00:00 NR -25.6985 57.7268 main 526 526 _____P________ -1 -25.6985 57.7268 99 8 141
1861042S16062 1861 7 SI MM NOT_NAMED 1861-02-18 21:00:00 NR -25.9992 58.0128 main 569 569 _____P________ -1 -25.9992 58.0128 99 8 138
1861042S16062 1861 7 SI MM NOT_NAMED 1861-02-19 00:00:00 NR -26.2847 58.3080 main 612 612 _____P________ -1 -26.2847 58.3080 99 8 136
1861042S16062 1861 7 SI MM NOT_NAMED 1861-02-19 03:00:00 NR -26.5525 58.6059 main 656 656 _____P________ -1 -26.5525 58.6059 99 7 134
1861042S16062 1861 7 SI MM NOT_NAMED 1861-02-19 06:00:00 NR -26.8000 58.9000 reunion main 690 690 _____O________ -1 -26.8000 58.9000 99 9.90000 7 133
1861042S16062 1861 7 SI MM NOT_NAMED 1861-02-19 09:00:00 NR -27.0368 59.1784 main 724 724 _____P________ -1 -27.0368 59.1784 99 7 132
1861042S16062 1861 7 SI MM NOT_NAMED 1861-02-19 12:00:00 NR -27.2544 59.4584 main 767 767 _____P________ -1 -27.2544 59.4584 99 6 130
1861042S16062 1861 7 SI MM NOT_NAMED 1861-02-19 15:00:00 NR -27.4536 59.7368 main 797 797 _____P________ -1 -27.4536 59.7368 99 6 128
1861042S16062 1861 7 SI MM NOT_NAMED 1861-02-19 18:00:00 NR -27.6352 60.0107 main 822 822 _____P________ -1 -27.6352 60.0107 99 6 126
1861042S16062 1861 7 SI MM NOT_NAMED 1861-02-19 21:00:00 NR -27.7998 60.2771 main 856 856 _____P________ -1 -27.7998 60.2771 99 6 124
1861042S16062 1861 7 SI MM NOT_NAMED 1861-02-20 00:00:00 NR -27.9483 60.5328 main 874 874 _____P________ -1 -27.9483 60.5328 99 5 123
1861042S16062 1861 7 SI MM NOT_NAMED 1861-02-20 03:00:00 NR -28.0815 60.7748 main 905 905 _____P________ -1 -28.0815 60.7748 99 5 121
1861042S16062 1861 7 SI MM NOT_NAMED 1861-02-20 06:00:00 NR -28.2000 61.0000 reunion main 922 922 _____O________ -1 -28.2000 61.0000 99 9.90000 4 120
1861042S16062 1861 7 SI MM NOT_NAMED 1861-02-20 09:00:00 NR -28.3050 61.2062 main 940 940 _____P________ -1 -28.3050 61.2062 99 4 120
1861042S16062 1861 7 SI MM NOT_NAMED 1861-02-20 12:00:00 NR -28.3979 61.3950 main 958 958 _____P________ -1 -28.3979 61.3950 99 4 119
1861042S16062 1861 7 SI MM NOT_NAMED 1861-02-20 15:00:00 NR -28.4806 61.5688 main 976 976 _____P________ -1 -28.4806 61.5688 99 3 118
1861042S16062 1861 7 SI MM NOT_NAMED 1861-02-20 18:00:00 NR -28.5548 61.7300 main 991 991 _____P________ -1 -28.5548 61.7300 99 3 117
1861042S16062 1861 7 SI MM NOT_NAMED 1861-02-20 21:00:00 NR -28.6221 61.8812 main 999 999 _____P________ -1 -28.6221 61.8812 99 3 116
1861042S16062 1861 7 SI MM NOT_NAMED 1861-02-21 00:00:00 NR -28.6843 62.0249 main 1013 1013 _____P________ -1 -28.6843 62.0249 99 3 116
1861042S16062 1861 7 SI MM NOT_NAMED 1861-02-21 03:00:00 NR -28.7431 62.1637 main 1022 1022 _____P________ -1 -28.7431 62.1637 99 3 116
1861042S16062 1861 7 SI MM NOT_NAMED 1861-02-21 06:00:00 NR -28.8000 62.3000 reunion main 1036 _____O________ -1 -28.8000 62.3000 99 9.90000 3 116

IBTrACS Databaseについて

本データベースは、米国NOAAが公開する1842年以降の世界の熱帯低気圧のベストトラックデータアーカイブInternational Best Track Archive for Climate Stewardship (IBTrACS)を、ウェブで閲覧しやすい形式に変換したものです。

最終更新日:2021-12-08